createdAt,value
2022-08-21T00:00:22.476Z,56.85
2022-08-21T00:02:53.322Z,57.00
2022-08-21T00:05:20.540Z,57.10
2022-08-21T00:07:47.287Z,57.16
2022-08-21T00:10:14.612Z,56.94
2022-08-21T00:12:42.540Z,57.30
2022-08-21T00:15:11.178Z,57.06
2022-08-21T00:17:38.460Z,57.36
2022-08-21T00:20:09.534Z,57.66
2022-08-21T00:22:37.621Z,58.15
2022-08-21T00:25:06.825Z,58.57
2022-08-21T00:27:34.433Z,58.19
2022-08-21T00:30:01.092Z,58.28
2022-08-21T00:32:29.014Z,58.20
2022-08-21T00:34:55.634Z,58.48
2022-08-21T00:37:22.763Z,59.03
2022-08-21T00:39:50.110Z,59.03
2022-08-21T00:42:17.354Z,59.12
2022-08-21T00:44:45.850Z,59.69
2022-08-21T00:47:12.998Z,59.94
2022-08-21T00:49:41.216Z,60.42
2022-08-21T00:52:11.981Z,60.39
2022-08-21T00:54:40.363Z,60.19
2022-08-21T00:57:16.999Z,60.05
2022-08-21T00:59:46.832Z,60.68
2022-08-21T01:02:14.250Z,60.88
2022-08-21T01:04:40.999Z,60.76
2022-08-21T01:07:07.982Z,60.66
2022-08-21T01:09:34.818Z,60.54
2022-08-21T01:12:01.828Z,60.14
2022-08-21T01:14:29.675Z,60.91
2022-08-21T01:16:58.712Z,61.31
2022-08-21T01:19:26.442Z,61.20
2022-08-21T01:21:54.709Z,61.56
2022-08-21T01:24:22.270Z,61.74
2022-08-21T01:26:50.617Z,61.87
2022-08-21T01:29:38.921Z,62.36
2022-08-21T01:32:18.374Z,62.57
2022-08-21T01:34:48.041Z,62.91
2022-08-21T01:37:16.155Z,63.30
2022-08-21T01:39:45.492Z,63.12
2022-08-21T01:42:12.242Z,63.28
2022-08-21T01:44:38.938Z,63.44
2022-08-21T01:47:09.595Z,63.50
2022-08-21T01:49:37.976Z,63.54
2022-08-21T01:52:05.742Z,63.58
2022-08-21T01:54:36.362Z,64.00
2022-08-21T01:57:03.476Z,64.10
2022-08-21T01:59:30.138Z,64.17
2022-08-21T02:01:58.501Z,64.35
2022-08-21T02:04:25.217Z,64.11
2022-08-21T02:06:51.974Z,63.80
2022-08-21T02:09:19.410Z,63.52
2022-08-21T02:11:47.102Z,63.12
2022-08-21T02:14:15.761Z,62.82
2022-08-21T02:17:03.408Z,62.96
2022-08-21T02:19:40.009Z,62.74
2022-08-21T02:22:09.286Z,63.11
2022-08-21T02:24:38.523Z,63.22
2022-08-21T02:27:26.241Z,63.60
2022-08-21T02:29:54.871Z,63.62
2022-08-21T02:32:22.394Z,63.64
2022-08-21T02:34:49.928Z,63.96
2022-08-21T02:37:16.689Z,64.11
2022-08-21T02:39:43.352Z,64.23
2022-08-21T02:42:09.966Z,64.65
2022-08-21T02:44:36.587Z,65.08
2022-08-21T02:47:03.196Z,65.18
2022-08-21T02:49:29.729Z,65.25
2022-08-21T02:51:56.284Z,65.64
2022-08-21T02:54:22.823Z,66.00
2022-08-21T02:56:49.394Z,65.74
2022-08-21T02:59:15.976Z,65.73
2022-08-21T03:01:42.578Z,66.08
2022-08-21T03:04:09.175Z,66.15
2022-08-21T03:06:35.780Z,65.47
2022-08-21T03:09:02.445Z,65.98
2022-08-21T03:11:29.466Z,66.03
2022-08-21T03:13:56.055Z,66.13
2022-08-21T03:16:22.684Z,66.23
2022-08-21T03:18:49.320Z,65.89
2022-08-21T03:21:15.942Z,66.37
2022-08-21T03:23:43.079Z,66.78
2022-08-21T03:26:11.776Z,66.85
2022-08-21T03:28:38.392Z,67.14
2022-08-21T03:31:05.747Z,66.98
2022-08-21T03:33:33.076Z,67.25
2022-08-21T03:36:12.178Z,66.35
2022-08-21T03:38:39.591Z,67.14
2022-08-21T03:41:07.114Z,67.45
2022-08-21T03:43:35.033Z,67.89
2022-08-21T03:46:04.425Z,68.23
2022-08-21T03:48:31.651Z,68.35
2022-08-21T03:50:58.301Z,68.18
2022-08-21T03:53:27.422Z,68.19
2022-08-21T03:55:54.349Z,68.31
2022-08-21T03:58:24.694Z,68.43
2022-08-21T04:00:54.929Z,68.36
2022-08-21T04:03:22.374Z,69.00
2022-08-21T04:05:49.172Z,68.84
2022-08-21T04:08:19.599Z,68.26
2022-08-21T04:10:47.259Z,68.18
2022-08-21T04:13:13.853Z,67.87
2022-08-21T04:15:40.776Z,67.87
2022-08-21T04:18:07.930Z,67.87
2022-08-21T04:20:36.307Z,67.86
2022-08-21T04:23:03.653Z,68.31
2022-08-21T04:25:30.564Z,68.56
2022-08-21T04:27:57.216Z,68.08
2022-08-21T04:30:28.228Z,68.37
2022-08-21T04:32:57.755Z,68.74
2022-08-21T04:35:27.410Z,68.49
2022-08-21T04:37:54.472Z,69.25
2022-08-21T04:40:23.293Z,69.10
2022-08-21T04:42:52.629Z,69.69
2022-08-21T04:45:23.165Z,69.32
2022-08-21T04:47:54.802Z,69.32
2022-08-21T04:50:25.643Z,69.48
2022-08-21T04:52:52.811Z,69.00
2022-08-21T04:55:20.076Z,68.32
2022-08-21T04:57:48.427Z,68.28
2022-08-21T05:00:19.365Z,68.51
2022-08-21T05:02:48.473Z,67.94
2022-08-21T05:05:15.517Z,68.76
2022-08-21T05:07:44.804Z,69.48
2022-08-21T05:10:12.651Z,70.28
2022-08-21T05:12:42.996Z,70.65
2022-08-21T05:15:13.526Z,71.00
2022-08-21T05:17:41.748Z,71.40
2022-08-21T05:20:13.379Z,71.03
2022-08-21T05:22:40.092Z,71.03
2022-08-21T05:25:10.186Z,70.73
2022-08-21T05:27:39.749Z,71.34
2022-08-21T05:30:10.738Z,71.59
2022-08-21T05:32:37.859Z,71.51
2022-08-21T05:35:09.031Z,71.42
2022-08-21T05:37:35.929Z,71.10
2022-08-21T05:40:04.761Z,71.38
2022-08-21T05:42:54.648Z,70.33
2022-08-21T05:45:39.338Z,70.04
2022-08-21T05:48:13.385Z,68.66
2022-08-21T05:50:40.157Z,67.69
2022-08-21T05:53:07.385Z,67.28
2022-08-21T05:55:34.613Z,66.93
2022-08-21T05:58:01.710Z,67.26
2022-08-21T06:00:28.429Z,66.28
2022-08-21T06:02:55.177Z,65.69
2022-08-21T06:05:35.878Z,66.07
2022-08-21T06:08:04.878Z,64.96
2022-08-21T06:10:32.115Z,64.88
2022-08-21T06:12:59.045Z,64.63
2022-08-21T06:15:25.912Z,65.15
2022-08-21T06:17:54.295Z,64.82
2022-08-21T06:20:21.108Z,64.81
2022-08-21T06:22:47.707Z,64.45
2022-08-21T06:25:14.266Z,64.59
2022-08-21T06:27:41.089Z,63.31
2022-08-21T06:30:08.517Z,63.09
2022-08-21T06:32:35.931Z,61.55
2022-08-21T06:35:02.584Z,60.70
2022-08-21T06:37:29.153Z,61.68
2022-08-21T06:39:55.859Z,60.88
2022-08-21T06:42:22.472Z,60.22
2022-08-21T06:44:54.653Z,58.69
2022-08-21T06:47:21.217Z,58.28
2022-08-21T06:49:47.756Z,57.14
2022-08-21T06:52:15.068Z,56.14
2022-08-21T06:54:41.802Z,55.32
2022-08-21T06:57:08.634Z,54.17
2022-08-21T06:59:35.437Z,52.55
2022-08-21T07:02:01.995Z,51.83
2022-08-21T07:04:28.775Z,52.75
2022-08-21T07:06:55.386Z,50.83
2022-08-21T07:09:24.668Z,50.40
2022-08-21T07:11:54.383Z,50.18
2022-08-21T07:14:21.045Z,49.46
2022-08-21T07:16:48.745Z,49.68
2022-08-21T07:19:15.339Z,50.03
2022-08-21T07:21:41.985Z,49.51
2022-08-21T07:24:08.560Z,49.60
2022-08-21T07:26:35.341Z,50.71
2022-08-21T07:29:02.210Z,51.04
2022-08-21T07:31:28.847Z,50.16
2022-08-21T07:33:55.692Z,49.06
2022-08-21T07:36:22.506Z,48.37
2022-08-21T07:38:49.362Z,48.57
2022-08-21T07:41:26.418Z,49.08
2022-08-21T07:43:53.643Z,48.13
2022-08-21T07:46:20.787Z,47.44
2022-08-21T07:48:47.703Z,46.75
2022-08-21T07:51:17.295Z,46.59
2022-08-21T07:53:49.401Z,46.45
2022-08-21T07:56:16.049Z,47.86
2022-08-21T07:58:42.726Z,48.69
2022-08-21T08:01:09.824Z,48.52
2022-08-21T08:03:37.694Z,47.61
2022-08-21T08:06:05.946Z,46.80
2022-08-21T08:08:33.062Z,46.96
2022-08-21T08:11:00.924Z,46.35
2022-08-21T08:13:28.962Z,45.88
2022-08-21T08:15:55.706Z,47.01
2022-08-21T08:18:22.424Z,47.60
2022-08-21T08:20:49.174Z,48.07
2022-08-21T08:23:16.314Z,48.76
2022-08-21T08:25:43.170Z,50.53
2022-08-21T08:28:16.585Z,49.67
2022-08-21T08:30:44.715Z,48.11
2022-08-21T08:33:12.223Z,47.85
2022-08-21T08:35:39.474Z,49.76
2022-08-21T08:38:06.691Z,50.67
2022-08-21T08:40:43.674Z,49.47
2022-08-21T08:43:14.708Z,47.38
2022-08-21T08:45:46.711Z,46.65
2022-08-21T08:48:15.747Z,46.37
2022-08-21T08:50:55.531Z,45.10
2022-08-21T08:53:30.077Z,45.79
2022-08-21T08:55:58.756Z,46.38
2022-08-21T08:58:31.394Z,44.18
2022-08-21T09:00:59.995Z,44.94
2022-08-21T09:03:28.867Z,44.76
2022-08-21T09:06:08.017Z,45.90
2022-08-21T09:08:49.979Z,45.35
2022-08-21T09:11:30.132Z,45.68
2022-08-21T09:14:22.528Z,45.55
2022-08-21T09:17:20.461Z,42.92
2022-08-21T09:20:38.185Z,41.72
2022-08-21T09:23:32.607Z,41.96
2022-08-21T09:26:13.012Z,42.80
2022-08-21T09:28:42.301Z,44.47
2022-08-21T09:31:17.147Z,44.29
2022-08-21T09:33:43.829Z,43.86
2022-08-21T09:36:11.331Z,43.15
2022-08-21T09:38:39.648Z,41.68
2022-08-21T09:41:11.341Z,41.05
2022-08-21T09:43:39.570Z,41.31
2022-08-21T09:46:12.629Z,40.73
2022-08-21T09:48:48.836Z,40.73
2022-08-21T09:51:19.297Z,40.65
2022-08-21T09:53:50.642Z,41.01
2022-08-21T09:56:57.304Z,40.16
2022-08-21T09:59:36.422Z,40.14
2022-08-21T10:02:19.026Z,39.06
2022-08-21T10:04:55.284Z,39.32
2022-08-21T10:07:24.817Z,40.10
2022-08-21T10:10:09.207Z,40.25
2022-08-21T10:12:50.862Z,40.07
2022-08-21T10:15:56.157Z,39.83
2022-08-21T10:18:43.348Z,39.99
2022-08-21T10:21:27.906Z,38.86
2022-08-21T10:24:49.895Z,40.02
2022-08-21T10:27:34.457Z,40.34
2022-08-21T10:30:09.756Z,40.40
2022-08-21T10:32:48.687Z,38.74
2022-08-21T10:35:21.557Z,38.45
2022-08-21T10:38:33.485Z,38.26
2022-08-21T10:41:29.629Z,38.38
2022-08-21T10:44:11.314Z,38.73
2022-08-21T10:46:58.034Z,37.95
2022-08-21T10:49:46.078Z,37.67
2022-08-21T10:52:24.662Z,36.43
2022-08-21T10:55:04.638Z,35.99
2022-08-21T10:57:49.967Z,36.77
2022-08-21T11:00:21.340Z,37.90
2022-08-21T11:02:59.580Z,36.69
2022-08-21T11:05:35.114Z,36.40
2022-08-21T11:08:12.195Z,35.92
2022-08-21T11:11:00.213Z,35.68
2022-08-21T11:13:38.402Z,36.29
2022-08-21T11:16:08.639Z,37.48
2022-08-21T11:18:40.600Z,37.82
2022-08-21T11:21:25.107Z,37.37
2022-08-21T11:24:04.636Z,36.98
2022-08-21T11:26:51.338Z,36.38
2022-08-21T11:29:35.684Z,35.11
2022-08-21T11:32:47.259Z,34.61
2022-08-21T11:35:31.952Z,35.28
2022-08-21T11:37:59.188Z,35.80
2022-08-21T11:40:45.997Z,36.54
2022-08-21T11:43:27.442Z,35.67
2022-08-21T11:46:00.697Z,35.46
2022-08-21T11:49:00.155Z,35.18
2022-08-21T11:51:46.543Z,35.85
2022-08-21T11:54:24.895Z,36.37
2022-08-21T11:57:13.991Z,36.78
2022-08-21T11:59:42.971Z,36.02
2022-08-21T12:02:16.027Z,34.75
2022-08-21T12:04:50.441Z,34.55
2022-08-21T12:07:30.401Z,34.72
2022-08-21T12:09:59.083Z,34.69
2022-08-21T12:12:35.207Z,33.97
2022-08-21T12:15:22.075Z,34.14
2022-08-21T12:18:26.487Z,35.38
2022-08-21T12:21:01.317Z,34.28
2022-08-21T12:23:34.695Z,34.07
2022-08-21T12:26:03.466Z,33.72
2022-08-21T12:28:31.983Z,33.85
2022-08-21T12:30:58.955Z,33.75
2022-08-21T12:33:31.279Z,32.68
2022-08-21T12:36:12.827Z,32.43
2022-08-21T12:38:54.872Z,31.92
2022-08-21T12:41:28.663Z,32.16
2022-08-21T12:44:00.131Z,30.92
2022-08-21T12:46:35.745Z,30.32
2022-08-21T12:49:15.178Z,30.66
2022-08-21T12:52:06.431Z,30.89
2022-08-21T12:54:40.531Z,31.52
2022-08-21T12:57:09.462Z,31.03
2022-08-21T12:59:40.897Z,31.08
2022-08-21T13:02:29.371Z,31.78
2022-08-21T13:04:57.604Z,31.33
2022-08-21T13:07:31.183Z,31.21
2022-08-21T13:10:02.799Z,30.38
2022-08-21T13:12:32.650Z,30.77
2022-08-21T13:15:02.344Z,29.29
2022-08-21T13:17:35.385Z,29.25
2022-08-21T13:20:09.599Z,29.03
2022-08-21T13:22:44.735Z,28.38
2022-08-21T13:25:16.524Z,28.33
2022-08-21T13:27:44.939Z,28.53
2022-08-21T13:30:23.434Z,28.32
2022-08-21T13:32:56.916Z,28.47
2022-08-21T13:35:29.692Z,29.06
2022-08-21T13:37:57.546Z,29.00
2022-08-21T13:40:41.284Z,28.50
2022-08-21T13:43:15.269Z,28.62
2022-08-21T13:45:52.206Z,28.92
2022-08-21T13:48:20.332Z,28.09
2022-08-21T13:50:47.554Z,27.80
2022-08-21T13:53:24.843Z,28.55
2022-08-21T13:55:52.129Z,28.58
2022-08-21T13:58:45.600Z,29.71
2022-08-21T14:01:55.572Z,29.37
2022-08-21T14:04:53.101Z,29.77
2022-08-21T14:07:26.823Z,29.04
2022-08-21T14:09:54.379Z,29.75
2022-08-21T14:12:29.525Z,29.05
2022-08-21T14:14:58.197Z,29.18
2022-08-21T14:17:35.220Z,29.12
2022-08-21T14:20:02.525Z,28.59
2022-08-21T14:22:44.862Z,28.70
2022-08-21T14:25:20.387Z,29.22
2022-08-21T14:28:09.821Z,29.36
2022-08-21T14:30:41.277Z,28.08
2022-08-21T14:33:13.077Z,28.51
2022-08-21T14:35:40.522Z,29.22
2022-08-21T14:38:18.550Z,27.64
2022-08-21T14:40:48.220Z,28.07
2022-08-21T14:43:14.814Z,28.20
2022-08-21T14:45:41.742Z,27.83
2022-08-21T14:48:09.111Z,27.30
2022-08-21T14:50:35.915Z,27.52
2022-08-21T14:53:10.857Z,27.30
2022-08-21T14:55:58.403Z,27.34
2022-08-21T14:58:25.973Z,26.00
2022-08-21T15:00:53.625Z,26.94
2022-08-21T15:03:20.396Z,27.90
2022-08-21T15:05:47.062Z,27.74
2022-08-21T15:08:13.685Z,27.74
2022-08-21T15:10:57.079Z,27.68
2022-08-21T15:13:28.152Z,27.84
2022-08-21T15:15:55.083Z,28.69
2022-08-21T15:18:22.338Z,28.80
2022-08-21T15:20:49.526Z,29.40
2022-08-21T15:23:16.491Z,29.04
2022-08-21T15:25:45.342Z,29.16
2022-08-21T15:28:12.913Z,29.32
2022-08-21T15:30:41.450Z,28.97
2022-08-21T15:33:08.379Z,29.25
2022-08-21T15:35:38.418Z,28.31
2022-08-21T15:38:07.858Z,28.87
2022-08-21T15:40:39.691Z,28.46
2022-08-21T15:43:46.396Z,28.71
2022-08-21T15:46:15.558Z,27.89
2022-08-21T15:48:42.656Z,27.67
2022-08-21T15:51:11.781Z,27.69
2022-08-21T15:53:40.870Z,27.77
2022-08-21T15:56:12.561Z,27.86
2022-08-21T15:58:39.727Z,28.48
2022-08-21T16:01:06.500Z,28.10
2022-08-21T16:03:34.317Z,28.51
2022-08-21T16:06:00.880Z,29.10
2022-08-21T16:08:27.573Z,28.61
2022-08-21T16:10:55.486Z,28.89
2022-08-21T16:13:29.777Z,28.57
2022-08-21T16:15:56.653Z,28.60
2022-08-21T16:18:24.108Z,28.42
2022-08-21T16:20:51.071Z,28.92
2022-08-21T16:23:17.832Z,29.18
2022-08-21T16:25:46.072Z,28.76
2022-08-21T16:28:16.823Z,29.23
2022-08-21T16:30:46.798Z,29.26
2022-08-21T16:33:20.973Z,28.61
2022-08-21T16:35:48.095Z,29.42
2022-08-21T16:38:15.210Z,28.90
2022-08-21T16:40:41.855Z,29.02
2022-08-21T16:43:08.580Z,28.82
2022-08-21T16:45:35.180Z,29.16
2022-08-21T16:48:04.565Z,28.87
2022-08-21T16:50:31.273Z,28.68
2022-08-21T16:52:58.113Z,29.08
2022-08-21T16:55:24.977Z,28.69
2022-08-21T16:57:51.698Z,28.92
2022-08-21T17:00:18.441Z,29.39
2022-08-21T17:02:49.127Z,29.49
2022-08-21T17:05:16.123Z,28.90
2022-08-21T17:07:44.287Z,29.41
2022-08-21T17:10:13.555Z,29.48
2022-08-21T17:12:42.070Z,29.82
2022-08-21T17:15:21.805Z,29.38
2022-08-21T17:17:49.462Z,29.76
2022-08-21T17:20:17.786Z,29.60
2022-08-21T17:22:44.365Z,30.05
2022-08-21T17:25:10.941Z,29.90
2022-08-21T17:27:38.937Z,30.15
2022-08-21T17:30:07.209Z,29.68
2022-08-21T17:32:33.999Z,30.09
2022-08-21T17:35:00.637Z,30.08
2022-08-21T17:37:29.270Z,29.87
2022-08-21T17:39:56.457Z,30.56
2022-08-21T17:42:25.136Z,30.33
2022-08-21T17:44:52.169Z,30.37
2022-08-21T17:47:18.858Z,30.47
2022-08-21T17:49:45.738Z,30.36
2022-08-21T17:52:12.333Z,30.68
2022-08-21T17:54:41.087Z,31.02
2022-08-21T17:57:08.758Z,30.60
2022-08-21T17:59:35.481Z,31.12
2022-08-21T18:02:03.933Z,31.25
2022-08-21T18:04:34.700Z,31.83
2022-08-21T18:07:01.250Z,32.00
2022-08-21T18:09:28.315Z,32.40
2022-08-21T18:11:59.130Z,32.78
2022-08-21T18:14:31.438Z,32.74
2022-08-21T18:16:57.980Z,33.28
2022-08-21T18:19:28.322Z,33.95
2022-08-21T18:21:55.990Z,33.61
2022-08-21T18:24:23.969Z,33.27
2022-08-21T18:26:59.077Z,32.76
2022-08-21T18:29:27.016Z,33.10
2022-08-21T18:31:53.764Z,33.32
2022-08-21T18:34:35.678Z,33.48
2022-08-21T18:37:02.747Z,33.33
2022-08-21T18:39:38.035Z,33.97
2022-08-21T18:42:10.531Z,33.89
2022-08-21T18:44:38.975Z,34.46
2022-08-21T18:47:12.295Z,35.14
2022-08-21T18:49:39.128Z,34.87
2022-08-21T18:52:08.194Z,34.86
2022-08-21T18:54:37.340Z,34.90
2022-08-21T18:57:08.430Z,34.74
2022-08-21T18:59:36.295Z,35.35
2022-08-21T19:02:07.829Z,35.69
2022-08-21T19:04:44.354Z,35.64
2022-08-21T19:07:13.656Z,35.59
2022-08-21T19:09:41.635Z,35.54
2022-08-21T19:12:14.518Z,35.34
2022-08-21T19:14:41.393Z,35.35
2022-08-21T19:17:08.713Z,35.51
2022-08-21T19:19:36.699Z,35.16
2022-08-21T19:22:06.189Z,35.40
2022-08-21T19:24:40.267Z,35.46
2022-08-21T19:27:16.801Z,35.56
2022-08-21T19:29:43.438Z,35.53
2022-08-21T19:32:10.613Z,36.19
2022-08-21T19:34:38.634Z,36.35
2022-08-21T19:37:06.512Z,36.40
2022-08-21T19:39:38.914Z,36.61
2022-08-21T19:42:10.258Z,36.40
2022-08-21T19:44:39.593Z,36.44
2022-08-21T19:47:13.881Z,36.67
2022-08-21T19:49:52.254Z,36.87
2022-08-21T19:52:20.366Z,36.80
2022-08-21T19:54:46.970Z,37.35
2022-08-21T19:57:14.060Z,37.10
2022-08-21T19:59:41.522Z,37.34
2022-08-21T20:02:10.815Z,37.22
2022-08-21T20:04:38.007Z,37.04
2022-08-21T20:07:08.140Z,37.02
2022-08-21T20:09:36.956Z,37.38
2022-08-21T20:12:10.325Z,37.40
2022-08-21T20:14:46.107Z,37.66
2022-08-21T20:17:16.294Z,37.82
2022-08-21T20:19:45.491Z,37.96
2022-08-21T20:22:12.903Z,38.12
2022-08-21T20:24:42.032Z,38.19
2022-08-21T20:27:12.555Z,38.42
2022-08-21T20:29:39.496Z,38.44
2022-08-21T20:32:08.029Z,38.73
2022-08-21T20:34:39.953Z,38.83
2022-08-21T20:37:06.703Z,38.89
2022-08-21T20:39:35.889Z,38.98
2022-08-21T20:42:04.565Z,38.90
2022-08-21T20:44:34.389Z,39.09
2022-08-21T20:47:09.037Z,39.64
2022-08-21T20:49:43.115Z,39.59
2022-08-21T20:52:10.904Z,39.78
2022-08-21T20:54:50.057Z,39.78
2022-08-21T20:57:51.065Z,39.83
2022-08-21T21:00:20.922Z,40.08
2022-08-21T21:02:50.800Z,40.34
2022-08-21T21:05:25.891Z,40.20
2022-08-21T21:08:00.714Z,40.23
2022-08-21T21:10:52.232Z,40.62
2022-08-21T21:13:32.753Z,40.56
2022-08-21T21:16:04.497Z,40.53
2022-08-21T21:18:44.528Z,40.89
2022-08-21T21:21:33.138Z,40.83
2022-08-21T21:24:05.785Z,40.99
2022-08-21T21:26:52.226Z,41.31
2022-08-21T21:29:29.978Z,41.44
2022-08-21T21:32:18.370Z,41.42
2022-08-21T21:34:46.614Z,41.83
2022-08-21T21:37:25.801Z,41.97
2022-08-21T21:40:08.950Z,42.07
2022-08-21T21:42:49.394Z,42.11
2022-08-21T21:45:44.941Z,42.28
2022-08-21T21:48:36.545Z,42.43
2022-08-21T21:51:15.219Z,42.58
2022-08-21T21:54:04.921Z,43.06
2022-08-21T21:56:31.587Z,42.75
2022-08-21T21:59:13.714Z,43.33
2022-08-21T22:01:51.323Z,43.36
2022-08-21T22:04:50.885Z,43.46
2022-08-21T22:07:55.883Z,43.80
2022-08-21T22:10:33.499Z,44.07
2022-08-21T22:13:26.264Z,43.76
2022-08-21T22:15:54.453Z,43.90
2022-08-21T22:18:26.704Z,44.17
2022-08-21T22:20:55.862Z,44.18
2022-08-21T22:23:38.271Z,44.25
2022-08-21T22:26:09.916Z,44.78
2022-08-21T22:28:40.625Z,44.57
2022-08-21T22:31:21.632Z,44.78
2022-08-21T22:34:07.136Z,45.11
2022-08-21T22:36:59.397Z,44.89
2022-08-21T22:39:39.608Z,45.33
2022-08-21T22:42:22.673Z,45.22
2022-08-21T22:44:58.463Z,45.29
2022-08-21T22:47:33.779Z,45.16
2022-08-21T22:50:05.461Z,45.61
2022-08-21T22:52:35.770Z,45.71
2022-08-21T22:55:24.644Z,45.42
2022-08-21T22:58:43.349Z,45.44
2022-08-21T23:01:33.349Z,45.60
2022-08-21T23:04:14.909Z,45.70
2022-08-21T23:09:44.994Z,45.90
2022-08-21T23:12:35.713Z,46.24
2022-08-21T23:15:07.988Z,46.45
2022-08-21T23:17:45.545Z,46.79
2022-08-21T23:20:33.459Z,46.71
2022-08-21T23:23:23.611Z,46.65
2022-08-21T23:26:08.296Z,47.16
2022-08-21T23:29:07.728Z,46.88
2022-08-21T23:31:46.215Z,47.08
2022-08-21T23:34:52.466Z,47.05
2022-08-21T23:37:49.418Z,47.31
2022-08-21T23:40:39.220Z,47.47
2022-08-21T23:43:41.971Z,47.55
2022-08-21T23:46:53.916Z,47.59
2022-08-21T23:52:53.786Z,47.65
2022-08-21T23:55:45.315Z,48.13
2022-08-21T23:58:22.998Z,47.98
